Time;durP1;ratioP1;P1;durP2;ratioP2;P2;SDS_P1;SDS_P2;PMS_P1;PMS_P2;Temp;Humidity;BMP_temperature;BMP_pressure;BME280_temperature;BME280_humidity;BME280_pressure;Samples;Min_cycle;Max_cycle;Signal;HPM_P1;HPM_P2
2023/04/28 00:00:55;;;;;;;8.70;5.68;;;;;;;5.86;100.00;101625.28;4984701;28;20052;-72
2023/04/28 00:03:21;;;;;;;10.48;4.97;;;;;;;5.86;100.00;101627.91;5001169;28;20068;-71
2023/04/28 00:05:48;;;;;;;8.95;5.07;;;;;;;5.87;100.00;101610.38;4977197;28;20037;-72
2023/04/28 00:08:14;;;;;;;10.00;5.00;;;;;;;5.85;100.00;101613.88;4982388;28;20100;-73
2023/04/28 00:10:39;;;;;;;7.57;4.38;;;;;;;5.84;100.00;101616.53;4984963;28;20092;-72
2023/04/28 00:13:05;;;;;;;7.70;4.57;;;;;;;5.82;100.00;101613.94;4995114;28;20045;-73
2023/04/28 00:15:30;;;;;;;7.72;4.82;;;;;;;5.81;100.00;101620.06;4981270;28;20038;-72
2023/04/28 00:17:56;;;;;;;8.50;4.93;;;;;;;5.80;100.00;101610.47;4979916;28;20042;-72
2023/04/28 00:20:21;;;;;;;11.82;5.28;;;;;;;5.79;100.00;101606.09;4980602;28;20125;-72
2023/04/28 00:22:48;;;;;;;11.32;5.03;;;;;;;5.76;100.00;101595.59;4979737;28;21969;-72
2023/04/28 00:25:13;;;;;;;11.80;5.50;;;;;;;5.76;100.00;101597.34;4994123;28;20041;-72
2023/04/28 00:27:39;;;;;;;10.88;4.82;;;;;;;5.73;100.00;101585.16;4978847;28;20041;-72
2023/04/28 00:30:05;;;;;;;9.85;4.80;;;;;;;5.73;100.00;101587.78;4977199;28;22499;-72
2023/04/28 00:32:31;;;;;;;9.60;5.40;;;;;;;5.71;100.00;101584.28;4978005;28;20164;-73
2023/04/28 00:34:56;;;;;;;7.68;4.78;;;;;;;5.72;100.00;101583.38;4980229;28;20714;-73
2023/04/28 00:37:22;;;;;;;8.68;4.82;;;;;;;5.69;100.00;101586.06;4963730;28;20513;-73
2023/04/28 00:39:47;;;;;;;10.15;5.20;;;;;;;5.68;100.00;101585.19;4989339;28;20042;-73
2023/04/28 00:42:13;;;;;;;6.82;4.38;;;;;;;5.67;100.00;101582.59;4977148;28;20683;-73
2023/04/28 00:44:40;;;;;;;14.20;4.50;;;;;;;5.65;100.00;101577.38;4968446;28;20040;-72
2023/04/28 00:47:09;;;;;;;9.93;4.57;;;;;;;5.64;100.00;101570.38;4967491;28;20054;-73
2023/04/28 00:49:35;;;;;;;9.48;4.25;;;;;;;5.63;100.00;101566.00;4968711;28;20041;-73
2023/04/28 00:52:04;;;;;;;9.05;4.70;;;;;;;5.62;100.00;101555.50;4987354;28;20048;-72
2023/04/28 00:54:32;;;;;;;6.93;4.57;;;;;;;5.58;100.00;101545.03;4985250;28;20116;-72
2023/04/28 00:56:57;;;;;;;6.18;4.32;;;;;;;5.57;100.00;101543.28;4982730;28;20030;-72
2023/04/28 00:59:23;;;;;;;8.25;4.47;;;;;;;5.55;100.00;101531.94;4983574;28;20153;-73
2023/04/28 01:01:48;;;;;;;7.93;4.53;;;;;;;5.54;100.00;101527.59;4986846;28;20034;-73
2023/04/28 01:04:19;;;;;;;7.18;4.50;;;;;;;5.54;100.00;101521.47;4983658;28;20059;-72
2023/04/28 01:06:45;;;;;;;6.95;4.60;;;;;;;5.54;100.00;101521.47;4986230;28;20038;-73
2023/04/28 01:09:10;;;;;;;6.18;4.07;;;;;;;5.53;100.00;101509.22;4998148;28;20069;-72
2023/04/28 01:11:36;;;;;;;8.55;4.55;;;;;;;5.51;100.00;101511.84;4987497;28;20030;-72
2023/04/28 01:14:02;;;;;;;7.35;4.13;;;;;;;5.51;100.00;101511.84;4966160;28;20102;-72
2023/04/28 01:16:28;;;;;;;8.75;4.50;;;;;;;5.50;100.00;101504.03;4984322;28;20040;-72
2023/04/28 01:18:54;;;;;;;8.30;4.65;;;;;;;5.50;100.00;101512.75;4999045;28;20904;-72
2023/04/28 01:21:31;;;;;;;8.23;4.22;;;;;;;5.49;100.00;101507.53;4992408;28;20052;-72
2023/04/28 01:23:57;;;;;;;7.55;4.50;;;;;;;5.48;100.00;101506.66;4997506;28;20188;-72
2023/04/28 01:26:23;;;;;;;9.15;5.00;;;;;;;5.48;100.00;101500.53;4981030;28;20050;-73
2023/04/28 01:28:49;;;;;;;7.97;4.82;;;;;;;5.48;100.00;101497.91;4983920;28;20144;-72
2023/04/28 01:31:15;;;;;;;11.38;4.88;;;;;;;5.48;100.00;101497.91;4984617;28;20512;-72
2023/04/28 01:33:41;;;;;;;7.72;4.72;;;;;;;5.47;100.00;101499.69;4985773;28;20046;-72
2023/04/28 01:36:07;;;;;;;9.25;5.10;;;;;;;5.47;100.00;101498.78;4999184;28;20060;-73
2023/04/28 01:38:45;;;;;;;7.72;4.60;;;;;;;5.45;100.00;101496.19;4985661;28;20677;-72
2023/04/28 01:41:11;;;;;;;8.55;4.50;;;;;;;5.44;100.00;101491.81;4985191;28;20164;-72
2023/04/28 01:43:36;;;;;;;7.88;4.43;;;;;;;5.44;100.00;101491.81;4980830;28;21044;-72
2023/04/28 01:46:02;;;;;;;8.25;4.50;;;;;;;5.44;100.00;101489.19;4999104;28;20093;-72
2023/04/28 01:48:27;;;;;;;9.18;5.35;;;;;;;5.41;100.00;101478.75;4992456;28;20049;-72
2023/04/28 01:50:53;;;;;;;8.32;4.82;;;;;;;5.41;100.00;101478.75;4981537;28;20489;-72
2023/04/28 01:53:19;;;;;;;8.43;4.68;;;;;;;5.40;100.00;101471.75;4961194;28;20030;-72
2023/04/28 01:55:46;;;;;;;11.07;4.95;;;;;;;5.40;100.00;101475.25;4977946;28;20079;-73
2023/04/28 01:58:12;;;;;;;9.43;5.30;;;;;;;5.40;100.00;101472.59;4980286;28;20042;-72
2023/04/28 02:00:37;;;;;;;10.85;5.30;;;;;;;5.40;100.00;101458.63;4979074;28;20080;-72
2023/04/28 02:03:03;;;;;;;10.00;4.70;;;;;;;5.39;100.00;101465.63;4982933;28;20038;-72
2023/04/28 02:05:28;;;;;;;11.68;4.95;;;;;;;5.39;100.00;101455.13;4992900;28;20112;-72
2023/04/28 02:07:54;;;;;;;8.63;4.80;;;;;;;5.40;100.00;101456.00;4979918;28;20188;-72
2023/04/28 02:10:20;;;;;;;10.27;5.38;;;;;;;5.42;100.00;101446.34;4980350;28;20030;-72
2023/04/28 02:12:45;;;;;;;10.90;5.28;;;;;;;5.41;100.00;101441.97;4978893;28;20701;-72
2023/04/28 02:15:11;;;;;;;8.02;4.72;;;;;;;5.43;100.00;101441.06;4975036;28;20038;-72
2023/04/28 02:17:36;;;;;;;10.63;4.93;;;;;;;5.45;100.00;101433.16;4965571;28;20128;-72
2023/04/28 02:20:10;;;;;;;9.27;5.10;;;;;;;5.47;100.00;101431.38;4979382;28;20045;-72
2023/04/28 02:22:35;;;;;;;11.13;5.70;;;;;;;5.47;100.00;101420.00;4990883;28;20241;-72
2023/04/28 02:25:01;;;;;;;9.93;5.15;;;;;;;5.46;100.00;101415.66;4979019;28;20501;-72
2023/04/28 02:27:27;;;;;;;6.97;4.47;;;;;;;5.46;100.00;101416.53;4975231;28;20030;-72
2023/04/28 02:29:53;;;;;;;8.43;5.05;;;;;;;5.45;100.00;101414.75;4978330;28;20134;-73
2023/04/28 02:32:18;;;;;;;9.02;5.30;;;;;;;5.46;100.00;101418.28;4981431;28;20508;-73
2023/04/28 02:34:44;;;;;;;8.98;4.63;;;;;;;5.41;100.00;101416.56;4980289;28;20489;-72
2023/04/28 02:37:09;;;;;;;7.53;4.63;;;;;;;5.36;100.00;101401.78;4983301;28;20054;-72
2023/04/28 02:39:35;;;;;;;9.00;4.95;;;;;;;5.32;100.00;101400.09;4983836;28;20124;-72
2023/04/28 02:42:01;;;;;;;8.65;5.32;;;;;;;5.30;100.00;101397.50;4983780;28;20069;-72
2023/04/28 02:44:27;;;;;;;10.73;5.15;;;;;;;5.25;100.00;101394.94;4966437;28;20038;-72
2023/04/28 02:46:52;;;;;;;8.60;5.15;;;;;;;5.22;100.00;101392.34;4985375;28;20049;-72
2023/04/28 02:49:18;;;;;;;8.48;5.07;;;;;;;5.20;100.00;101393.25;4988141;28;20222;-72
2023/04/28 02:51:43;;;;;;;11.55;5.38;;;;;;;5.16;100.00;101393.31;4963987;28;20045;-72
2023/04/28 02:54:09;;;;;;;8.93;5.35;;;;;;;5.16;100.00;101381.91;4981639;28;20048;-72
2023/04/28 02:56:35;;;;;;;8.50;5.22;;;;;;;5.14;100.00;101381.94;4984063;28;20038;-73
2023/04/28 02:59:01;;;;;;;11.55;5.75;;;;;;;5.15;100.00;101374.94;4994585;28;20096;-73
2023/04/28 03:01:27;;;;;;;11.85;5.90;;;;;;;5.14;100.00;101381.09;4983131;28;20046;-73
2023/04/28 03:03:52;;;;;;;13.10;6.25;;;;;;;5.13;100.00;101379.34;4964814;28;20054;-72
2023/04/28 03:06:18;;;;;;;9.13;5.25;;;;;;;5.10;100.00;101377.63;4998594;28;20038;-73
2023/04/28 03:08:43;;;;;;;10.13;5.25;;;;;;;5.11;100.00;101383.75;4967412;28;20124;-73
2023/04/28 03:11:10;;;;;;;9.68;5.63;;;;;;;5.11;100.00;101375.88;4983586;28;20034;-72
2023/04/28 03:13:36;;;;;;;12.15;6.05;;;;;;;5.11;100.00;101375.88;4997234;28;20709;-72
2023/04/28 03:16:01;;;;;;;10.55;5.72;;;;;;;5.11;100.00;101378.50;4996809;28;20038;-73
2023/04/28 03:18:27;;;;;;;9.68;5.43;;;;;;;5.12;100.00;101372.38;4981292;28;20042;-73
2023/04/28 03:20:52;;;;;;;10.50;5.50;;;;;;;5.12;100.00;101361.88;4987209;28;20088;-73
2023/04/28 03:23:18;;;;;;;11.88;6.05;;;;;;;5.13;100.00;101363.59;4982156;28;20038;-72
2023/04/28 03:25:43;;;;;;;11.38;6.10;;;;;;;5.13;100.00;101355.72;4982667;28;20961;-73
2023/04/28 03:28:09;;;;;;;11.68;5.93;;;;;;;5.11;100.00;101352.25;4981058;28;20026;-73
2023/04/28 03:30:35;;;;;;;9.50;5.43;;;;;;;5.11;100.00;101344.38;4984863;28;20030;-73
2023/04/28 03:33:01;;;;;;;13.60;5.47;;;;;;;5.10;100.00;101342.63;4987205;28;20629;-73
2023/04/28 03:35:26;;;;;;;10.15;5.70;;;;;;;5.10;100.00;101334.75;4996585;28;20042;-74
2023/04/28 03:37:52;;;;;;;12.25;5.70;;;;;;;5.09;100.00;101335.66;4983298;28;20038;-71
2023/04/28 03:40:18;;;;;;;13.13;6.88;;;;;;;5.10;100.00;101326.88;4970229;28;20899;-72
2023/04/28 03:42:43;;;;;;;11.25;5.97;;;;;;;5.08;100.00;101313.81;4982702;28;20037;-72
2023/04/28 03:45:09;;;;;;;11.55;6.30;;;;;;;5.07;100.00;101314.66;4982429;28;20042;-74
2023/04/28 03:47:35;;;;;;;14.00;5.75;;;;;;;5.08;100.00;101312.94;4986941;28;20029;-72
2023/04/28 03:50:01;;;;;;;10.93;6.25;;;;;;;5.09;100.00;101319.91;4967026;28;20037;-72
2023/04/28 03:52:34;;;;;;;13.25;6.18;;;;;;;5.09;100.00;101307.66;4986255;28;20057;-73
2023/04/28 03:55:00;;;;;;;11.10;6.35;;;;;;;5.10;100.00;101305.88;4984506;28;20034;-73
2023/04/28 03:57:25;;;;;;;10.43;6.10;;;;;;;5.13;100.00;101308.47;4999110;28;20034;-72
2023/04/28 03:59:51;;;;;;;13.18;6.22;;;;;;;5.14;100.00;101304.97;4984490;28;21165;-72
2023/04/28 04:02:16;;;;;;;12.20;5.43;;;;;;;5.14;100.00;101302.34;4993847;28;20666;-72
2023/04/28 04:04:42;;;;;;;12.80;6.18;;;;;;;5.15;100.00;101288.31;4996686;28;20037;-72
2023/04/28 04:07:08;;;;;;;12.32;6.55;;;;;;;5.12;100.00;101283.13;4985844;28;20646;-72
2023/04/28 04:09:37;;;;;;;13.32;6.88;;;;;;;5.14;100.00;101289.22;4980390;28;20045;-72
2023/04/28 04:12:03;;;;;;;13.52;6.40;;;;;;;5.13;100.00;101283.09;4978571;28;20042;-73
2023/04/28 04:14:28;;;;;;;10.35;6.25;;;;;;;5.11;100.00;101278.75;4984780;28;20045;-72
2023/04/28 04:16:54;;;;;;;11.10;6.28;;;;;;;5.09;100.00;101268.28;4963207;28;21015;-73
2023/04/28 04:19:20;;;;;;;11.45;6.80;;;;;;;5.08;100.00;101265.69;4982483;28;20033;-72
2023/04/28 04:21:45;;;;;;;11.95;6.65;;;;;;;5.08;100.00;101270.94;4996773;28;20057;-72
2023/04/28 04:24:11;;;;;;;14.77;6.90;;;;;;;5.08;100.00;101265.69;4984022;28;20073;-73
2023/04/28 04:26:46;;;;;;;14.00;6.70;;;;;;;5.08;100.00;101270.94;4969751;28;20029;-72
2023/04/28 04:29:11;;;;;;;13.85;6.72;;;;;;;5.11;100.00;101270.88;4948893;28;20049;-72
2023/04/28 04:31:37;;;;;;;13.70;6.93;;;;;;;5.13;100.00;101267.34;4996800;28;20045;-72
2023/04/28 04:34:02;;;;;;;13.73;6.93;;;;;;;5.16;100.00;101258.53;4982176;28;20497;-72
2023/04/28 04:36:29;;;;;;;13.77;7.13;;;;;;;5.19;100.00;101263.75;4983802;28;20160;-73
2023/04/28 04:38:54;;;;;;;13.95;7.28;;;;;;;5.22;100.00;101258.44;4982952;28;20057;-72
2023/04/28 04:41:20;;;;;;;12.93;6.97;;;;;;;5.24;100.00;101250.56;4968195;28;20034;-72
2023/04/28 04:43:53;;;;;;;12.25;7.07;;;;;;;5.26;100.00;101254.91;4983144;28;20046;-72
2023/04/28 04:46:19;;;;;;;13.43;6.90;;;;;;;5.30;100.00;101253.94;4995051;28;20474;-72
2023/04/28 04:48:44;;;;;;;12.48;6.90;;;;;;;5.33;100.00;101253.00;4984392;28;20046;-73
2023/04/28 04:51:10;;;;;;;14.00;6.63;;;;;;;5.35;100.00;101253.88;4984760;28;20052;-72
2023/04/28 04:53:36;;;;;;;14.15;6.78;;;;;;;5.37;100.00;101248.56;4981400;28;20049;-73
2023/04/28 04:56:02;;;;;;;14.68;7.28;;;;;;;5.38;100.00;101245.94;4982666;28;20034;-72
2023/04/28 04:58:28;;;;;;;12.77;6.20;;;;;;;5.40;100.00;101240.66;4995409;28;20076;-72
2023/04/28 05:00:53;;;;;;;14.80;7.22;;;;;;;5.40;100.00;101235.41;4978773;28;21151;-73
2023/04/28 05:03:19;;;;;;;14.27;7.15;;;;;;;5.41;100.00;101231.88;4983813;28;20127;-72
2023/04/28 05:05:44;;;;;;;16.70;7.95;;;;;;;5.42;100.00;101241.50;4963820;28;20034;-72
2023/04/28 05:08:11;;;;;;;15.48;7.38;;;;;;;5.43;100.00;101237.97;4997990;28;20063;-72
2023/04/28 05:10:36;;;;;;;14.40;7.80;;;;;;;5.41;100.00;101224.84;4992847;28;22036;-72
2023/04/28 05:13:02;;;;;;;14.77;7.03;;;;;;;5.43;100.00;101237.97;4980967;28;20041;-72
2023/04/28 05:15:28;;;;;;;13.15;6.93;;;;;;;5.42;100.00;101228.38;4995845;28;20511;-72
2023/04/28 05:17:53;;;;;;;16.30;7.95;;;;;;;5.44;100.00;101227.44;4967093;28;20038;-72
2023/04/28 05:20:19;;;;;;;14.05;7.40;;;;;;;5.46;100.00;101232.69;4966287;28;20115;-72
2023/04/28 05:22:45;;;;;;;14.60;7.75;;;;;;;5.49;100.00;101244.91;4970335;28;20032;-72
2023/04/28 05:25:10;;;;;;;14.70;7.00;;;;;;;5.50;100.00;101244.00;4998053;28;20489;-72
2023/04/28 05:27:38;;;;;;;12.45;7.30;;;;;;;5.48;100.00;101233.50;4983789;28;20576;-72
2023/04/28 05:30:05;;;;;;;15.35;6.88;;;;;;;5.48;100.00;101233.50;4984988;28;20599;-72
2023/04/28 05:32:30;;;;;;;14.60;7.43;;;;;;;5.46;100.00;101235.31;4985687;28;20592;-72
2023/04/28 05:34:56;;;;;;;19.50;7.75;;;;;;;5.48;100.00;101238.75;4986968;28;20037;-73
2023/04/28 05:37:21;;;;;;;16.52;8.50;;;;;;;5.50;100.00;101241.38;4985335;28;20070;-72
2023/04/28 05:39:47;;;;;;;16.42;7.28;;;;;;;5.52;100.00;101216.81;4982022;28;20131;-72
2023/04/28 05:42:13;;;;;;;15.02;7.97;;;;;;;5.54;100.00;101217.66;4985123;28;20049;-72
2023/04/28 05:44:38;;;;;;;16.63;7.85;;;;;;;5.57;100.00;101212.31;4984247;28;20054;-73
2023/04/28 05:47:04;;;;;;;17.35;7.65;;;;;;;5.59;100.00;101209.66;4983388;28;20138;-72
2023/04/28 05:49:29;;;;;;;15.30;7.65;;;;;;;5.62;100.00;101200.88;4965507;28;20111;-72
2023/04/28 05:51:55;;;;;;;15.05;7.57;;;;;;;5.62;100.00;101199.09;4981196;28;20038;-72
2023/04/28 05:54:20;;;;;;;16.48;7.25;;;;;;;5.66;100.00;101197.31;4992058;28;20060;-72
2023/04/28 05:56:46;;;;;;;16.80;7.72;;;;;;;5.66;100.00;101190.28;4967175;28;20587;-72
2023/04/28 05:59:11;;;;;;;17.92;7.18;;;;;;;5.66;100.00;101198.16;4994862;28;20042;-72
2023/04/28 06:01:37;;;;;;;14.50;7.88;;;;;;;5.68;100.00;101209.47;4980061;28;20139;-73
2023/04/28 06:04:03;;;;;;;16.70;7.90;;;;;;;5.69;100.00;101199.84;4996310;28;20522;-72
2023/04/28 06:06:29;;;;;;;15.80;7.93;;;;;;;5.72;100.00;101191.91;4982156;28;20072;-72
2023/04/28 06:08:54;;;;;;;14.95;8.05;;;;;;;5.74;100.00;101198.00;4967520;28;20099;-72
2023/04/28 06:11:21;;;;;;;15.50;8.18;;;;;;;5.77;100.00;101200.56;4978681;28;20045;-72
2023/04/28 06:13:48;;;;;;;15.52;7.68;;;;;;;5.80;100.00;101208.41;4981432;28;20076;-72
2023/04/28 06:16:15;;;;;;;16.75;7.90;;;;;;;5.81;100.00;101204.88;4979373;28;20050;-72
2023/04/28 06:18:41;;;;;;;16.67;8.00;;;;;;;5.84;100.00;101199.53;4976521;28;20065;-78
2023/04/28 06:21:06;;;;;;;16.35;7.20;;;;;;;5.87;100.00;101192.53;4961879;28;20591;-72
2023/04/28 06:23:32;;;;;;;15.43;7.72;;;;;;;5.89;100.00;101182.84;4963516;28;20509;-73
2023/04/28 06:25:58;;;;;;;15.60;7.78;;;;;;;5.92;100.00;101182.75;4979870;28;20073;-73
2023/04/28 06:28:23;;;;;;;18.10;8.35;;;;;;;5.94;100.00;101189.72;4978996;28;20671;-72
2023/04/28 06:30:49;;;;;;;16.95;8.20;;;;;;;5.98;100.00;101190.50;4994402;28;20443;-72
2023/04/28 06:33:14;;;;;;;15.80;7.32;;;;;;;5.99;100.00;101186.97;4992640;28;20046;-72
2023/04/28 06:35:40;;;;;;;15.75;7.90;;;;;;;6.03;100.00;101180.81;4981562;28;20122;-73
2023/04/28 06:38:06;;;;;;;17.42;7.95;;;;;;;6.08;100.00;101180.72;4983993;28;20028;-72
2023/04/28 06:40:31;;;;;;;14.82;7.60;;;;;;;6.11;100.00;101186.75;4967286;28;20545;-72
2023/04/28 06:42:57;;;;;;;15.75;7.82;;;;;;;6.15;100.00;101191.97;4961372;28;20038;-72
2023/04/28 06:45:22;;;;;;;15.52;7.22;;;;;;;6.16;100.00;101196.34;4977454;28;20041;-72
2023/04/28 06:47:48;;;;;;;15.85;7.75;;;;;;;6.19;100.00;101193.63;4980509;28;20033;-72
2023/04/28 06:50:14;;;;;;;15.70;7.90;;;;;;;6.22;100.00;101193.56;4994253;28;20147;-72
2023/04/28 06:52:45;;;;;;;14.68;7.75;;;;;;;6.24;100.00;101184.75;4982075;28;20050;-72
2023/04/28 06:55:15;;;;;;;16.25;7.38;;;;;;;6.30;100.00;101167.97;4983087;28;20057;-73
2023/04/28 06:57:41;;;;;;;15.52;7.97;;;;;;;6.36;100.00;101166.97;4978097;28;20061;-73
2023/04/28 07:00:07;;;;;;;14.32;7.53;;;;;;;6.43;100.00;101165.91;4979172;28;20093;-73
2023/04/28 07:02:33;;;;;;;14.10;8.02;;;;;;;6.51;100.00;101166.63;4966180;28;20061;-73
2023/04/28 07:04:59;;;;;;;17.42;8.32;;;;;;;6.58;100.00;101167.34;4983644;28;20601;-73
2023/04/28 07:07:25;;;;;;;14.73;8.35;;;;;;;6.62;100.00;101174.25;4998305;28;20489;-73
2023/04/28 07:09:52;;;;;;;16.02;7.95;;;;;;;6.61;100.00;101180.44;4985792;28;20087;-73
2023/04/28 07:12:18;;;;;;;14.98;7.70;;;;;;;6.62;100.00;101178.66;4981642;28;20057;-73
2023/04/28 07:14:43;;;;;;;16.48;7.65;;;;;;;6.62;100.00;101181.28;4985267;28;20065;-73
2023/04/28 07:17:09;;;;;;;14.48;7.53;;;;;;;6.59;100.00;101187.47;4985400;28;20065;-73
2023/04/28 07:19:34;;;;;;;15.23;7.85;;;;;;;6.57;100.00;101177.88;4983303;28;20421;-73
2023/04/28 07:22:00;;;;;;;15.80;7.57;;;;;;;6.56;100.00;101177.03;5001883;28;20247;-73
2023/04/28 07:24:26;;;;;;;13.60;8.05;;;;;;;6.54;100.00;101176.19;4987115;28;20125;-73
2023/04/28 07:26:51;;;;;;;15.35;7.95;;;;;;;6.49;100.00;101171.03;4987223;28;20166;-73
2023/04/28 07:29:17;;;;;;;15.35;8.13;;;;;;;6.42;100.00;101177.34;4999371;28;20085;-73
2023/04/28 07:31:42;;;;;;;14.43;7.88;;;;;;;6.36;100.00;101170.47;4985487;28;20088;-72
2023/04/28 07:34:08;;;;;;;13.95;7.50;;;;;;;6.31;100.00;101179.38;4988712;28;20038;-73
2023/04/28 07:36:33;;;;;;;16.75;8.13;;;;;;;6.24;100.00;101176.88;4982951;28;20072;-73
2023/04/28 07:39:00;;;;;;;16.98;8.07;;;;;;;6.19;100.00;101177.84;4996490;28;20797;-73
2023/04/28 07:41:26;;;;;;;15.65;7.68;;;;;;;6.11;100.00;101175.41;4997834;28;20342;-73
2023/04/28 07:43:52;;;;;;;14.07;7.65;;;;;;;6.06;100.00;101170.22;4955221;28;21594;-73
2023/04/28 07:46:18;;;;;;;16.00;8.02;;;;;;;6.04;100.00;101181.69;4968200;28;20042;-74
2023/04/28 07:48:43;;;;;;;18.58;8.40;;;;;;;6.03;100.00;101170.28;4990250;28;20042;-73
2023/04/28 07:51:09;;;;;;;14.52;8.10;;;;;;;6.06;100.00;101179.88;4978631;28;20037;-73
2023/04/28 07:53:35;;;;;;;15.88;8.02;;;;;;;6.09;100.00;101178.06;4962101;28;20280;-73
2023/04/28 07:56:01;;;;;;;16.73;8.85;;;;;;;6.13;100.00;101188.50;4981829;28;20048;-73
2023/04/28 07:58:27;;;;;;;17.30;9.10;;;;;;;6.13;100.00;101180.59;4975935;28;20065;-73
2023/04/28 08:00:52;;;;;;;15.02;7.88;;;;;;;6.13;100.00;101183.22;4989036;28;20037;-74
2023/04/28 08:03:18;;;;;;;15.88;8.10;;;;;;;6.14;100.00;101175.31;4963648;28;20101;-73
2023/04/28 08:05:44;;;;;;;23.00;8.85;;;;;;;6.18;100.00;101176.13;4978142;28;20049;-73
2023/04/28 08:08:10;;;;;;;14.63;8.60;;;;;;;6.20;100.00;101171.69;4980415;28;20041;-73
2023/04/28 08:10:36;;;;;;;18.00;8.68;;;;;;;6.22;100.00;101180.44;4977388;28;20030;-74
2023/04/28 08:13:02;;;;;;;18.10;8.65;;;;;;;6.24;100.00;101165.47;4981112;28;20124;-74
2023/04/28 08:15:28;;;;;;;17.23;8.52;;;;;;;6.27;100.00;101154.03;4976083;28;20042;-73
2023/04/28 08:17:53;;;;;;;15.90;8.38;;;;;;;6.28;100.00;101126.81;4978131;28;20774;-74
2023/04/28 08:20:20;;;;;;;15.40;8.23;;;;;;;6.30;100.00;101118.00;4961949;28;20034;-74
2023/04/28 08:22:45;;;;;;;16.33;8.57;;;;;;;6.39;100.00;101116.94;4962266;28;20038;-73
2023/04/28 08:25:11;;;;;;;16.77;8.45;;;;;;;6.44;100.00;101122.97;4976841;28;20061;-74
2023/04/28 08:27:38;;;;;;;17.05;9.07;;;;;;;6.48;100.00;101127.22;4963648;28;20037;-73
2023/04/28 08:30:08;;;;;;;18.30;8.18;;;;;;;6.56;100.00;101140.19;4979250;28;20045;-73
2023/04/28 08:32:33;;;;;;;19.02;9.18;;;;;;;6.61;100.00;101143.59;4977442;28;20038;-73
2023/04/28 08:34:59;;;;;;;16.92;8.70;;;;;;;6.65;100.00;101137.34;4977688;28;20064;-72
2023/04/28 08:37:28;;;;;;;17.98;9.77;;;;;;;6.72;100.00;101142.47;4963611;28;20073;-72
2023/04/28 08:40:00;;;;;;;17.65;8.85;;;;;;;6.81;100.00;101134.31;4979000;28;20045;-72
2023/04/28 08:42:30;;;;;;;15.93;9.02;;;;;;;6.90;100.00;101141.13;4977585;28;20141;-74
2023/04/28 08:44:58;;;;;;;17.60;8.43;;;;;;;6.95;100.00;101135.75;4964604;28;20054;-71
2023/04/28 08:47:39;;;;;;;16.17;8.80;;;;;;;7.01;100.00;101136.47;4996197;28;20034;-72
2023/04/28 08:50:08;;;;;;;19.80;9.80;;;;;;;7.11;100.00;101134.47;4989773;28;20073;-72
2023/04/28 08:52:35;;;;;;;18.95;9.57;;;;;;;7.19;100.00;101124.56;4961076;28;20300;-73
2023/04/28 08:55:08;;;;;;;18.45;9.25;;;;;;;7.31;100.00;101120.75;4991122;28;20328;-73
2023/04/28 08:57:54;;;;;;;18.35;8.93;;;;;;;7.40;100.00;101114.34;4980065;28;20042;-73
2023/04/28 09:00:20;;;;;;;15.32;8.27;;;;;;;7.49;100.00;101110.59;4972824;28;20046;-75
2023/04/28 09:02:46;;;;;;;15.73;9.25;;;;;;;7.64;100.00;101100.53;4972049;28;20531;-77
2023/04/28 09:05:12;;;;;;;16.48;9.27;;;;;;;7.79;100.00;101092.16;4977691;28;20184;-77
2023/04/28 09:07:39;;;;;;;18.10;9.63;;;;;;;7.92;100.00;101090.03;4959137;28;20034;-78
2023/04/28 09:10:24;;;;;;;17.15;9.27;;;;;;;8.02;100.00;101080.94;4938604;28;21399;-74
2023/04/28 09:12:54;;;;;;;13.93;8.32;;;;;;;8.17;100.00;101080.50;4975033;28;20037;-78
2023/04/28 09:15:33;;;;;;;15.40;8.70;;;;;;;8.28;100.00;101083.66;4969782;28;20133;-73
2023/04/28 09:18:01;;;;;;;16.17;8.60;;;;;;;8.36;100.00;101081.66;4972167;28;20057;-73
2023/04/28 09:20:29;;;;;;;16.75;8.80;;;;;;;8.35;100.00;101081.69;4957916;28;20135;-73
2023/04/28 09:23:20;;;;;;;17.40;8.85;;;;;;;8.35;100.00;101072.00;4975740;28;20839;-73
2023/04/28 09:25:59;;;;;;;18.00;8.85;;;;;;;8.37;100.00;101070.19;4991802;28;20050;-73
2023/04/28 09:28:25;;;;;;;14.90;8.70;;;;;;;8.42;100.00;101064.75;4966130;28;20575;-73
2023/04/28 09:30:51;;;;;;;14.45;8.02;;;;;;;8.52;100.00;101065.34;4970861;28;20053;-73
2023/04/28 09:33:16;;;;;;;15.00;8.88;;;;;;;8.66;100.00;101067.53;4978725;28;22563;-73
2023/04/28 09:35:46;;;;;;;17.08;8.98;;;;;;;8.80;100.00;101051.19;4978467;28;20527;-73
2023/04/28 09:38:12;;;;;;;21.15;9.82;;;;;;;9.02;100.00;101047.81;4976814;28;20057;-73
2023/04/28 09:41:01;;;;;;;15.75;9.18;;;;;;;9.19;100.00;101040.16;4976174;28;20061;-73
2023/04/28 09:43:32;;;;;;;14.73;8.82;;;;;;;9.28;100.00;101041.59;4959588;28;20037;-73
2023/04/28 09:45:59;;;;;;;17.30;8.30;;;;;;;9.40;100.00;101042.03;4961216;28;20034;-73
2023/04/28 09:48:29;;;;;;;14.75;8.60;;;;;;;9.51;100.00;101047.78;4983830;28;20197;-73
2023/04/28 09:50:56;;;;;;;12.93;8.45;;;;;;;9.55;100.00;101045.91;4984648;28;20041;-73
2023/04/28 09:53:23;;;;;;;18.52;8.85;;;;;;;9.58;100.00;101041.34;4943268;28;1136510;-73
2023/04/28 09:55:51;;;;;;;13.93;9.02;;;;;;;9.62;100.00;101048.25;4979371;28;20033;-73
2023/04/28 09:58:18;;;;;;;15.48;9.05;;;;;;;9.68;100.00;101051.56;4996357;28;20164;-73
2023/04/28 10:00:44;;;;;;;15.30;7.95;;;;;;;9.73;100.00;101039.91;4982888;28;20038;-73
2023/04/28 10:03:14;;;;;;;13.98;8.55;;;;;;;9.82;100.00;101036.03;4987890;28;20029;-74
2023/04/28 10:05:40;;;;;;;14.73;8.10;;;;;;;9.83;100.00;101042.19;4961144;28;20042;-73
2023/04/28 10:08:06;;;;;;;12.32;7.88;;;;;;;9.82;100.00;101041.34;4980874;28;20155;-74
2023/04/28 10:10:34;;;;;;;15.05;8.45;;;;;;;9.88;100.00;101046.38;4977527;28;20128;-73
2023/04/28 10:13:00;;;;;;;13.55;8.40;;;;;;;9.98;100.00;101038.06;4961674;28;20095;-72
2023/04/28 10:15:26;;;;;;;16.92;8.70;;;;;;;10.04;100.00;101029.91;4988210;28;20034;-73
2023/04/28 10:17:52;;;;;;;14.13;8.18;;;;;;;10.09;100.00;101032.34;4980008;28;20096;-73
2023/04/28 10:20:20;;;;;;;12.88;7.65;;;;;;;10.11;100.00;101030.50;4991128;28;20156;-74
2023/04/28 10:23:26;;;;;;;12.85;8.05;;;;;;;10.16;100.00;101032.06;4956862;28;20034;-75
2023/04/28 10:25:58;;;;;;;16.60;8.05;;;;;;;10.18;100.00;101026.69;4980551;28;20042;-74
2023/04/28 10:28:25;;;;;;;13.55;8.30;;;;;;;10.21;100.00;101028.34;4950881;28;20040;-73
2023/04/28 10:31:17;;;;;;;14.57;8.75;;;;;;;10.27;100.00;101018.38;4974971;28;20520;-73
2023/04/28 10:33:43;;;;;;;11.98;8.13;;;;;;;10.35;100.00;101020.69;4979575;28;20161;-72
2023/04/28 10:36:09;;;;;;;16.33;8.32;;;;;;;10.42;100.00;101026.59;4963342;28;20061;-72
2023/04/28 10:38:35;;;;;;;14.75;8.43;;;;;;;10.51;100.00;101023.59;4977004;28;22051;-72
2023/04/28 10:41:02;;;;;;;14.20;7.88;;;;;;;10.56;100.00;101015.44;4979428;28;20041;-71
2023/04/28 10:43:27;;;;;;;14.60;7.82;;;;;;;10.56;100.00;101012.78;4958608;28;20482;-72
2023/04/28 10:45:53;;;;;;;12.68;7.60;;;;;;;10.58;100.00;101013.63;4953694;28;20037;-72
2023/04/28 10:48:20;;;;;;;12.63;7.95;;;;;;;10.59;100.00;101012.69;4978963;28;20040;-72
2023/04/28 10:51:14;;;;;;;11.85;7.47;;;;;;;10.59;100.00;101010.03;4959531;28;20069;-72
2023/04/28 10:53:48;;;;;;;;;;;;;;;10.62;100.00;101003.75;4957736;28;20410;-72
2023/04/28 10:56:25;;;;;;;12.73;7.55;;;;;;;10.69;100.00;101003.41;4964204;28;20039;-73
2023/04/28 10:59:20;;;;;;;12.40;8.13;;;;;;;10.82;100.00;101000.22;4944216;28;20050;-74
2023/04/28 11:01:45;;;;;;;13.35;7.75;;;;;;;10.96;100.00;100995.16;4960656;28;20048;-72
2023/04/28 11:04:15;;;;;;;14.55;7.72;;;;;;;11.08;100.00;100998.22;4994365;28;20046;-72
2023/04/28 11:06:41;;;;;;;11.23;7.32;;;;;;;11.15;100.00;100991.69;4982547;28;20521;-72
2023/04/28 11:09:13;;;;;;;12.30;7.70;;;;;;;11.21;100.00;100994.06;4981382;28;20161;-71
2023/04/28 11:12:00;;;;;;;10.25;7.10;;;;;;;11.20;100.00;100996.78;4981353;28;20037;-71
2023/04/28 11:14:29;;;;;;;14.55;8.02;;;;;;;11.13;100.00;100996.22;4974928;28;20142;-71
2023/04/28 11:17:04;;;;;;;12.75;7.53;;;;;;;11.09;100.00;100994.63;4978444;28;20463;-72
2023/04/28 11:19:44;;;;;;;10.70;7.38;;;;;;;11.00;100.00;100985.28;4977182;28;20159;-72